sensor_id;sensor_type;location;lat;lon;timestamp;pressure;altitude;pressure_sealevel;temperature;humidity
51031;BME280;37058;41.442;23.240;2022-08-23T00:01:54;99686.59;;;22.47;92.54
51031;BME280;37058;41.442;23.240;2022-08-23T00:04:29;99680.31;;;22.50;91.78
51031;BME280;37058;41.442;23.240;2022-08-23T00:06:56;99685.41;;;22.48;91.79
51031;BME280;37058;41.442;23.240;2022-08-23T00:09:25;99693.66;;;22.44;92.41
51031;BME280;37058;41.442;23.240;2022-08-23T00:12:23;99685.66;;;22.43;92.30
51031;BME280;37058;41.442;23.240;2022-08-23T00:14:54;99682.06;;;22.42;92.27
51031;BME280;37058;41.442;23.240;2022-08-23T00:17:20;99681.25;;;22.42;92.15
51031;BME280;37058;41.442;23.240;2022-08-23T00:19:46;99674.91;;;22.41;91.54
51031;BME280;37058;41.442;23.240;2022-08-23T00:22:13;99674.53;;;22.43;92.02
51031;BME280;37058;41.442;23.240;2022-08-23T00:24:40;99683.34;;;22.45;91.47
51031;BME280;37058;41.442;23.240;2022-08-23T00:27:12;99679.41;;;22.46;91.41
51031;BME280;37058;41.442;23.240;2022-08-23T00:29:50;99673.84;;;22.46;91.59
51031;BME280;37058;41.442;23.240;2022-08-23T00:32:27;99678.25;;;22.47;91.54
51031;BME280;37058;41.442;23.240;2022-08-23T00:34:54;99678.25;;;22.47;90.14
51031;BME280;37058;41.442;23.240;2022-08-23T00:37:22;99677.19;;;22.52;89.76
51031;BME280;37058;41.442;23.240;2022-08-23T00:39:48;99684.38;;;22.53;89.66
51031;BME280;37058;41.442;23.240;2022-08-23T00:42:53;99685.19;;;22.53;90.13
51031;BME280;37058;41.442;23.240;2022-08-23T00:48:43;99683.00;;;22.34;92.12
51031;BME280;37058;41.442;23.240;2022-08-23T00:51:33;99686.13;;;22.33;92.43
51031;BME280;37058;41.442;23.240;2022-08-23T00:54:00;99684.41;;;22.28;92.71
51031;BME280;37058;41.442;23.240;2022-08-23T00:56:31;99686.28;;;22.24;93.24
51031;BME280;37058;41.442;23.240;2022-08-23T00:58:59;99689.84;;;22.24;93.12
51031;BME280;37058;41.442;23.240;2022-08-23T01:01:25;99691.03;;;22.23;92.90
51031;BME280;37058;41.442;23.240;2022-08-23T01:03:55;99692.16;;;22.22;93.29
51031;BME280;37058;41.442;23.240;2022-08-23T01:06:57;99700.88;;;22.21;93.05
51031;BME280;37058;41.442;23.240;2022-08-23T01:09:27;99703.28;;;22.22;93.13
51031;BME280;37058;41.442;23.240;2022-08-23T01:12:04;99701.78;;;22.25;92.96
51031;BME280;37058;41.442;23.240;2022-08-23T01:14:46;99709.78;;;22.26;92.43
51031;BME280;37058;41.442;23.240;2022-08-23T01:17:34;99719.41;;;22.29;92.04
51031;BME280;37058;41.442;23.240;2022-08-23T01:20:12;99719.50;;;22.33;91.70
51031;BME280;37058;41.442;23.240;2022-08-23T01:25:43;99704.56;;;22.37;90.89
51031;BME280;37058;41.442;23.240;2022-08-23T01:28:09;99697.38;;;22.36;90.92
51031;BME280;37058;41.442;23.240;2022-08-23T01:30:35;99696.22;;;22.37;91.18
51031;BME280;37058;41.442;23.240;2022-08-23T01:33:05;99692.97;;;22.35;91.17
51031;BME280;37058;41.442;23.240;2022-08-23T01:35:46;99698.19;;;22.37;91.04
51031;BME280;37058;41.442;23.240;2022-08-23T01:38:14;99695.75;;;22.35;90.99
51031;BME280;37058;41.442;23.240;2022-08-23T01:40:41;99697.72;;;22.35;91.55
51031;BME280;37058;41.442;23.240;2022-08-23T01:43:08;99696.56;;;22.36;91.60
51031;BME280;37058;41.442;23.240;2022-08-23T01:45:34;99702.13;;;22.36;90.97
51031;BME280;37058;41.442;23.240;2022-08-23T01:48:01;99712.09;;;22.37;89.99
51031;BME280;37058;41.442;23.240;2022-08-23T01:50:28;99708.06;;;22.34;89.10
51031;BME280;37058;41.442;23.240;2022-08-23T01:52:54;99710.84;;;22.34;88.89
51031;BME280;37058;41.442;23.240;2022-08-23T01:55:21;99704.91;;;22.36;89.28
51031;BME280;37058;41.442;23.240;2022-08-23T01:57:52;99710.94;;;22.38;89.77
51031;BME280;37058;41.442;23.240;2022-08-23T02:00:23;99705.38;;;22.38;90.65
51031;BME280;37058;41.442;23.240;2022-08-23T02:02:49;99702.13;;;22.36;92.02
51031;BME280;37058;41.442;23.240;2022-08-23T02:05:17;99700.97;;;22.37;91.79
51031;BME280;37058;41.442;23.240;2022-08-23T02:07:44;99708.63;;;22.40;93.26
51031;BME280;37058;41.442;23.240;2022-08-23T02:10:10;99715.81;;;22.41;92.68
51031;BME280;37058;41.442;23.240;2022-08-23T02:12:36;99716.50;;;22.38;93.95
51031;BME280;37058;41.442;23.240;2022-08-23T02:15:04;99729.03;;;22.32;95.25
51031;BME280;37058;41.442;23.240;2022-08-23T02:17:30;99726.81;;;22.25;95.51
51031;BME280;37058;41.442;23.240;2022-08-23T02:19:56;99732.81;;;22.15;96.13
51031;BME280;37058;41.442;23.240;2022-08-23T02:22:22;99731.91;;;22.11;95.86
51031;BME280;37058;41.442;23.240;2022-08-23T02:24:48;99722.50;;;22.03;95.44
51031;BME280;37058;41.442;23.240;2022-08-23T02:27:15;99724.47;;;22.02;95.93
51031;BME280;37058;41.442;23.240;2022-08-23T02:29:44;99732.94;;;22.06;96.08
51031;BME280;37058;41.442;23.240;2022-08-23T02:32:13;99728.88;;;22.03;95.97
51031;BME280;37058;41.442;23.240;2022-08-23T02:34:41;99737.56;;;22.02;96.43
51031;BME280;37058;41.442;23.240;2022-08-23T02:37:09;99748.69;;;22.02;96.53
51031;BME280;37058;41.442;23.240;2022-08-23T02:39:36;99760.16;;;22.00;97.12
51031;BME280;37058;41.442;23.240;2022-08-23T02:42:03;99760.38;;;21.95;97.79
51031;BME280;37058;41.442;23.240;2022-08-23T02:44:29;99769.06;;;21.94;97.82
51031;BME280;37058;41.442;23.240;2022-08-23T02:47:00;99767.31;;;21.89;97.92
51031;BME280;37058;41.442;23.240;2022-08-23T02:49:27;99773.66;;;21.90;98.10
51031;BME280;37058;41.442;23.240;2022-08-23T02:51:53;99779.69;;;21.92;98.06
51031;BME280;37058;41.442;23.240;2022-08-23T02:54:19;99785.25;;;21.92;98.26
51031;BME280;37058;41.442;23.240;2022-08-23T02:56:45;99784.78;;;21.90;98.35
51031;BME280;37058;41.442;23.240;2022-08-23T02:59:11;99785.25;;;21.92;98.93
51031;BME280;37058;41.442;23.240;2022-08-23T03:01:39;99783.19;;;21.89;99.49
51031;BME280;37058;41.442;23.240;2022-08-23T03:04:08;99785.47;;;21.86;99.61
51031;BME280;37058;41.442;23.240;2022-08-23T03:06:36;99785.38;;;21.83;100.00
51031;BME280;37058;41.442;23.240;2022-08-23T03:09:04;99788.59;;;21.85;99.81
51031;BME280;37058;41.442;23.240;2022-08-23T03:11:30;99793.72;;;21.83;100.00
51031;BME280;37058;41.442;23.240;2022-08-23T03:13:55;99801.22;;;21.82;99.67
51031;BME280;37058;41.442;23.240;2022-08-23T03:16:23;99805.63;;;21.83;99.55
51031;BME280;37058;41.442;23.240;2022-08-23T03:18:50;99819.53;;;21.83;98.96
51031;BME280;37058;41.442;23.240;2022-08-23T03:21:18;99822.66;;;21.82;99.46
51031;BME280;37058;41.442;23.240;2022-08-23T03:23:44;99832.16;;;21.81;99.81
51031;BME280;37058;41.442;23.240;2022-08-23T03:26:13;99825.63;;;21.77;100.00
51031;BME280;37058;41.442;23.240;2022-08-23T03:28:41;99827.13;;;21.74;100.00
51031;BME280;37058;41.442;23.240;2022-08-23T03:31:08;99819.75;;;21.78;100.00
51031;BME280;37058;41.442;23.240;2022-08-23T03:33:35;99819.28;;;21.76;99.80
51031;BME280;37058;41.442;23.240;2022-08-23T03:36:05;99816.59;;;21.80;98.50
51031;BME280;37058;41.442;23.240;2022-08-23T03:38:31;99819.81;;;21.70;97.24
51031;BME280;37058;41.442;23.240;2022-08-23T03:40:58;99820.50;;;21.67;97.33
51031;BME280;37058;41.442;23.240;2022-08-23T03:43:25;99823.50;;;21.61;99.30
51031;BME280;37058;41.442;23.240;2022-08-23T03:45:51;99825.94;;;21.63;99.68
51031;BME280;37058;41.442;23.240;2022-08-23T03:48:17;99838.41;;;21.57;100.00
51031;BME280;37058;41.442;23.240;2022-08-23T03:50:43;99821.56;;;21.41;100.00
51031;BME280;37058;41.442;23.240;2022-08-23T03:53:10;99831.06;;;21.31;100.00
51031;BME280;37058;41.442;23.240;2022-08-23T03:55:36;99837.72;;;21.18;100.00
51031;BME280;37058;41.442;23.240;2022-08-23T03:58:02;99842.06;;;21.07;100.00
51031;BME280;37058;41.442;23.240;2022-08-23T04:00:28;99843.75;;;20.99;100.00
51031;BME280;37058;41.442;23.240;2022-08-23T04:02:54;99843.66;;;20.87;100.00
51031;BME280;37058;41.442;23.240;2022-08-23T04:05:20;99843.50;;;20.83;100.00
51031;BME280;37058;41.442;23.240;2022-08-23T04:07:46;99845.13;;;20.84;100.00
51031;BME280;37058;41.442;23.240;2022-08-23T04:10:12;99850.00;;;20.87;100.00
51031;BME280;37058;41.442;23.240;2022-08-23T04:12:41;99847.38;;;20.91;100.00
51031;BME280;37058;41.442;23.240;2022-08-23T04:15:07;99857.13;;;20.97;100.00
51031;BME280;37058;41.442;23.240;2022-08-23T04:17:34;99850.22;;;21.03;100.00
51031;BME280;37058;41.442;23.240;2022-08-23T04:20:05;99854.28;;;21.06;100.00
51031;BME280;37058;41.442;23.240;2022-08-23T04:22:31;99854.09;;;21.11;100.00
51031;BME280;37058;41.442;23.240;2022-08-23T04:24:59;99864.19;;;21.15;100.00
51031;BME280;37058;41.442;23.240;2022-08-23T04:27:25;99859.81;;;21.14;99.16
51031;BME280;37058;41.442;23.240;2022-08-23T04:29:50;99854.25;;;21.14;95.42
51031;BME280;37058;41.442;23.240;2022-08-23T04:32:16;99854.72;;;21.16;94.45
51031;BME280;37058;41.442;23.240;2022-08-23T04:34:42;99856.00;;;21.19;93.06
51031;BME280;37058;41.442;23.240;2022-08-23T04:37:09;99857.63;;;21.20;92.55
51031;BME280;37058;41.442;23.240;2022-08-23T04:39:36;99854.50;;;21.21;92.69
51031;BME280;37058;41.442;23.240;2022-08-23T04:42:23;99861.34;;;21.24;93.17
51031;BME280;37058;41.442;23.240;2022-08-23T04:44:49;99865.78;;;21.25;93.66
51031;BME280;37058;41.442;23.240;2022-08-23T04:47:16;99868.19;;;21.27;94.14
51031;BME280;37058;41.442;23.240;2022-08-23T04:49:42;99891.16;;;21.15;94.23
51031;BME280;37058;41.442;23.240;2022-08-23T04:52:08;99890.44;;;20.97;95.33
51031;BME280;37058;41.442;23.240;2022-08-23T04:54:34;99903.88;;;20.86;93.93
51031;BME280;37058;41.442;23.240;2022-08-23T04:57:00;99896.72;;;20.85;93.94
51031;BME280;37058;41.442;23.240;2022-08-23T04:59:27;99890.19;;;20.81;89.82
51031;BME280;37058;41.442;23.240;2022-08-23T05:01:53;99907.00;;;20.85;90.10
51031;BME280;37058;41.442;23.240;2022-08-23T05:04:19;99924.47;;;20.85;87.51
51031;BME280;37058;41.442;23.240;2022-08-23T05:06:46;99920.44;;;20.74;88.05
51031;BME280;37058;41.442;23.240;2022-08-23T05:09:12;99918.31;;;20.71;87.73
51031;BME280;37058;41.442;23.240;2022-08-23T05:11:38;99916.69;;;20.70;88.03
51031;BME280;37058;41.442;23.240;2022-08-23T05:14:04;99924.69;;;20.71;87.93
51031;BME280;37058;41.442;23.240;2022-08-23T05:16:30;99914.22;;;20.68;85.30
51031;BME280;37058;41.442;23.240;2022-08-23T05:18:56;99917.53;;;20.62;83.66
51031;BME280;37058;41.442;23.240;2022-08-23T05:21:23;99918.84;;;20.64;84.20
51031;BME280;37058;41.442;23.240;2022-08-23T05:23:49;99929.41;;;20.71;83.38
51031;BME280;37058;41.442;23.240;2022-08-23T05:26:16;99928.75;;;20.74;84.23
51031;BME280;37058;41.442;23.240;2022-08-23T05:28:45;99924.34;;;20.73;83.36
51031;BME280;37058;41.442;23.240;2022-08-23T05:31:20;99915.84;;;20.78;83.76
51031;BME280;37058;41.442;23.240;2022-08-23T05:33:47;99922.84;;;20.84;83.00
51031;BME280;37058;41.442;23.240;2022-08-23T05:36:16;99929.81;;;20.90;82.77
51031;BME280;37058;41.442;23.240;2022-08-23T05:38:43;99926.84;;;20.95;82.63
51031;BME280;37058;41.442;23.240;2022-08-23T05:41:12;99920.19;;;20.96;82.89
51031;BME280;37058;41.442;23.240;2022-08-23T05:43:38;99926.84;;;20.95;82.69
51031;BME280;37058;41.442;23.240;2022-08-23T05:46:11;99933.56;;;20.94;83.05
51031;BME280;37058;41.442;23.240;2022-08-23T05:48:43;99934.66;;;21.02;83.31
51031;BME280;37058;41.442;23.240;2022-08-23T05:51:25;99944.44;;;21.08;83.77
51031;BME280;37058;41.442;23.240;2022-08-23T05:53:53;99950.78;;;21.09;82.75
51031;BME280;37058;41.442;23.240;2022-08-23T05:56:25;99958.28;;;21.17;81.97
51031;BME280;37058;41.442;23.240;2022-08-23T05:58:55;99963.16;;;21.20;81.41
51031;BME280;37058;41.442;23.240;2022-08-23T06:01:21;99962.34;;;21.19;83.00
51031;BME280;37058;41.442;23.240;2022-08-23T06:03:48;99952.53;;;21.22;83.83
51031;BME280;37058;41.442;23.240;2022-08-23T06:06:15;99950.41;;;21.19;83.49
51031;BME280;37058;41.442;23.240;2022-08-23T06:08:43;99944.66;;;21.24;84.10
51031;BME280;37058;41.442;23.240;2022-08-23T06:11:27;99944.13;;;21.31;83.34
51031;BME280;37058;41.442;23.240;2022-08-23T06:14:00;99943.78;;;21.41;82.30
51031;BME280;37058;41.442;23.240;2022-08-23T06:16:48;99958.06;;;21.52;81.72
51031;BME280;37058;41.442;23.240;2022-08-23T06:19:14;99956.19;;;21.43;84.33
51031;BME280;37058;41.442;23.240;2022-08-23T06:21:41;99958.25;;;21.55;84.75
51031;BME280;37058;41.442;23.240;2022-08-23T06:24:08;99957.22;;;21.60;84.19
51031;BME280;37058;41.442;23.240;2022-08-23T06:26:38;99952.75;;;21.68;84.26
51031;BME280;37058;41.442;23.240;2022-08-23T06:29:09;99954.72;;;21.88;83.33
51031;BME280;37058;41.442;23.240;2022-08-23T06:31:40;99944.97;;;22.15;82.55
51031;BME280;37058;41.442;23.240;2022-08-23T06:36:57;99940.03;;;22.54;78.70
51031;BME280;37058;41.442;23.240;2022-08-23T06:39:26;99942.97;;;23.44;76.63
51031;BME280;37058;41.442;23.240;2022-08-23T06:41:55;99951.78;;;25.50;67.95
51031;BME280;37058;41.442;23.240;2022-08-23T06:44:21;99938.41;;;26.79;62.94
51031;BME280;37058;41.442;23.240;2022-08-23T06:46:47;99945.31;;;26.63;60.92
51031;BME280;37058;41.442;23.240;2022-08-23T06:49:14;99946.13;;;26.44;63.69
51031;BME280;37058;41.442;23.240;2022-08-23T06:51:44;99944.03;;;26.17;62.88
51031;BME280;37058;41.442;23.240;2022-08-23T06:54:13;99936.53;;;26.02;63.98
51031;BME280;37058;41.442;23.240;2022-08-23T06:56:40;99948.16;;;25.85;64.11
51031;BME280;37058;41.442;23.240;2022-08-23T06:59:07;99950.25;;;25.88;63.08
51031;BME280;37058;41.442;23.240;2022-08-23T07:01:56;99936.63;;;25.51;63.61
51031;BME280;37058;41.442;23.240;2022-08-23T07:04:41;99941.00;;;25.52;63.93
51031;BME280;37058;41.442;23.240;2022-08-23T07:07:08;99945.97;;;25.59;64.53
51031;BME280;37058;41.442;23.240;2022-08-23T07:09:34;99953.78;;;25.34;63.78
51031;BME280;37058;41.442;23.240;2022-08-23T07:12:01;99949.03;;;25.18;64.56
51031;BME280;37058;41.442;23.240;2022-08-23T07:14:27;99947.75;;;25.16;65.27
51031;BME280;37058;41.442;23.240;2022-08-23T07:16:59;99941.97;;;25.40;66.16
51031;BME280;37058;41.442;23.240;2022-08-23T07:19:30;99952.16;;;25.68;65.00
51031;BME280;37058;41.442;23.240;2022-08-23T07:21:57;99951.94;;;25.77;64.42
51031;BME280;37058;41.442;23.240;2022-08-23T07:24:24;99945.00;;;25.86;64.04
51031;BME280;37058;41.442;23.240;2022-08-23T07:26:51;99948.59;;;25.87;63.63
51031;BME280;37058;41.442;23.240;2022-08-23T07:29:19;99951.09;;;25.92;63.68
51031;BME280;37058;41.442;23.240;2022-08-23T07:31:53;99943.19;;;25.78;63.74
51031;BME280;37058;41.442;23.240;2022-08-23T07:34:21;99944.69;;;25.91;63.21
51031;BME280;37058;41.442;23.240;2022-08-23T07:36:49;99942.66;;;25.72;63.66
51031;BME280;37058;41.442;23.240;2022-08-23T07:39:16;99933.47;;;25.72;64.21
51031;BME280;37058;41.442;23.240;2022-08-23T07:41:43;99936.66;;;25.70;64.40
51031;BME280;37058;41.442;23.240;2022-08-23T07:44:10;99938.81;;;25.97;63.52
51031;BME280;37058;41.442;23.240;2022-08-23T07:46:40;99934.31;;;26.11;63.05
51031;BME280;37058;41.442;23.240;2022-08-23T07:49:08;99923.72;;;26.21;61.27
51031;BME280;37058;41.442;23.240;2022-08-23T07:51:35;99922.91;;;26.43;60.86
51031;BME280;37058;41.442;23.240;2022-08-23T07:54:05;99920.81;;;26.36;61.81
51031;BME280;37058;41.442;23.240;2022-08-23T07:56:31;99918.31;;;26.31;61.15
51031;BME280;37058;41.442;23.240;2022-08-23T07:58:57;99910.72;;;26.32;61.05
51031;BME280;37058;41.442;23.240;2022-08-23T08:01:26;99908.19;;;26.46;61.26
51031;BME280;37058;41.442;23.240;2022-08-23T08:03:54;99905.22;;;26.58;61.24
51031;BME280;37058;41.442;23.240;2022-08-23T08:08:58;99898.75;;;26.77;60.68
51031;BME280;37058;41.442;23.240;2022-08-23T08:11:27;99899.78;;;26.92;60.17
51031;BME280;37058;41.442;23.240;2022-08-23T08:13:54;99898.28;;;26.98;58.83
51031;BME280;37058;41.442;23.240;2022-08-23T08:16:36;99897.47;;;26.98;59.00
51031;BME280;37058;41.442;23.240;2022-08-23T08:19:05;99900.00;;;27.07;59.01
51031;BME280;37058;41.442;23.240;2022-08-23T08:21:33;99898.06;;;27.11;58.67
51031;BME280;37058;41.442;23.240;2022-08-23T08:23:59;99881.50;;;27.25;60.17
51031;BME280;37058;41.442;23.240;2022-08-23T08:26:26;99885.97;;;27.30;58.39
51031;BME280;37058;41.442;23.240;2022-08-23T08:28:53;99882.00;;;27.34;59.96
51031;BME280;37058;41.442;23.240;2022-08-23T08:31:22;99879.38;;;27.45;58.04
51031;BME280;37058;41.442;23.240;2022-08-23T08:33:48;99887.41;;;27.47;57.32
51031;BME280;37058;41.442;23.240;2022-08-23T08:36:32;99878.88;;;27.39;58.47
51031;BME280;37058;41.442;23.240;2022-08-23T08:39:05;99878.16;;;27.42;57.80
51031;BME280;37058;41.442;23.240;2022-08-23T08:52:38;99875.50;;;27.87;59.66
51031;BME280;37058;41.442;23.240;2022-08-23T08:55:30;99870.56;;;28.10;59.77
51031;BME280;37058;41.442;23.240;2022-08-23T08:57:57;99875.84;;;28.16;59.98
51031;BME280;37058;41.442;23.240;2022-08-23T09:00:30;99883.16;;;28.27;60.42
51031;BME280;37058;41.442;23.240;2022-08-23T09:02:58;99879.31;;;28.43;58.92
51031;BME280;37058;41.442;23.240;2022-08-23T09:05:30;99885.88;;;28.54;57.99
51031;BME280;37058;41.442;23.240;2022-08-23T09:11:22;99890.53;;;28.43;57.62
51031;BME280;37058;41.442;23.240;2022-08-23T09:17:03;99886.81;;;28.31;55.18
51031;BME280;37058;41.442;23.240;2022-08-23T09:19:33;99891.22;;;28.29;55.35
51031;BME280;37058;41.442;23.240;2022-08-23T09:22:10;99887.44;;;28.14;55.10
51031;BME280;37058;41.442;23.240;2022-08-23T09:24:39;99890.84;;;27.97;55.64
51031;BME280;37058;41.442;23.240;2022-08-23T09:27:08;99892.47;;;27.98;55.36
51031;BME280;37058;41.442;23.240;2022-08-23T09:29:36;99891.28;;;27.99;55.52
51031;BME280;37058;41.442;23.240;2022-08-23T09:32:06;99881.84;;;28.18;55.83
51031;BME280;37058;41.442;23.240;2022-08-23T09:34:49;99876.50;;;28.43;55.05
51031;BME280;37058;41.442;23.240;2022-08-23T09:37:19;99877.84;;;28.56;53.60
51031;BME280;37058;41.442;23.240;2022-08-23T09:40:11;99873.94;;;28.64;52.84
51031;BME280;37058;41.442;23.240;2022-08-23T09:42:39;99871.91;;;28.65;52.83
51031;BME280;37058;41.442;23.240;2022-08-23T09:45:36;99869.84;;;28.58;53.22
51031;BME280;37058;41.442;23.240;2022-08-23T09:48:05;99862.22;;;28.59;52.83
51031;BME280;37058;41.442;23.240;2022-08-23T09:50:38;99858.31;;;28.70;53.92
51031;BME280;37058;41.442;23.240;2022-08-23T09:53:11;99863.63;;;28.79;53.22
51031;BME280;37058;41.442;23.240;2022-08-23T09:55:51;99856.41;;;28.85;52.33
51031;BME280;37058;41.442;23.240;2022-08-23T09:58:35;99851.78;;;29.07;52.69
51031;BME280;37058;41.442;23.240;2022-08-23T10:01:09;99847.44;;;29.21;52.62
51031;BME280;37058;41.442;23.240;2022-08-23T10:03:36;99845.53;;;29.35;52.22
51031;BME280;37058;41.442;23.240;2022-08-23T10:06:03;99841.88;;;29.31;51.94
51031;BME280;37058;41.442;23.240;2022-08-23T10:11:44;99841.16;;;29.52;52.09
51031;BME280;37058;41.442;23.240;2022-08-23T10:14:14;99843.69;;;29.72;52.74
51031;BME280;37058;41.442;23.240;2022-08-23T10:19:53;99848.19;;;29.94;51.29
51031;BME280;37058;41.442;23.240;2022-08-23T10:22:25;99858.69;;;30.08;50.60
51031;BME280;37058;41.442;23.240;2022-08-23T10:25:31;99859.50;;;30.19;50.21
51031;BME280;37058;41.442;23.240;2022-08-23T10:31:47;99847.84;;;30.21;50.73
51031;BME280;37058;41.442;23.240;2022-08-23T10:34:48;99838.19;;;30.26;50.19
51031;BME280;37058;41.442;23.240;2022-08-23T10:46:29;99834.19;;;30.30;49.63
51031;BME280;37058;41.442;23.240;2022-08-23T10:49:00;99828.97;;;30.29;49.43
51031;BME280;37058;41.442;23.240;2022-08-23T10:51:36;99820.53;;;30.29;49.71
51031;BME280;37058;41.442;23.240;2022-08-23T10:56:38;99835.72;;;30.02;49.11
51031;BME280;37058;41.442;23.240;2022-08-23T10:59:12;99836.09;;;29.83;49.10
51031;BME280;37058;41.442;23.240;2022-08-23T11:05:00;99831.94;;;29.55;50.73
51031;BME280;37058;41.442;23.240;2022-08-23T11:07:38;99833.47;;;29.42;50.20
51031;BME280;37058;41.442;23.240;2022-08-23T11:15:59;99796.38;;;29.11;51.44
51031;BME280;37058;41.442;23.240;2022-08-23T11:18:48;99803.63;;;29.12;52.25
51031;BME280;37058;41.442;23.240;2022-08-23T11:31:40;99808.28;;;28.94;53.17
51031;BME280;37058;41.442;23.240;2022-08-23T11:34:30;99809.50;;;28.96;53.58
51031;BME280;37058;41.442;23.240;2022-08-23T11:37:28;99803.50;;;28.94;54.39
51031;BME280;37058;41.442;23.240;2022-08-23T11:45:11;99794.53;;;28.74;54.24
51031;BME280;37058;41.442;23.240;2022-08-23T11:47:46;99786.84;;;28.68;54.27
51031;BME280;37058;41.442;23.240;2022-08-23T11:56:11;99779.19;;;28.61;55.18
51031;BME280;37058;41.442;23.240;2022-08-23T12:01:30;99768.75;;;28.62;56.17
51031;BME280;37058;41.442;23.240;2022-08-23T12:04:05;99770.34;;;28.59;55.81
51031;BME280;37058;41.442;23.240;2022-08-23T12:06:47;99760.69;;;28.57;56.06
51031;BME280;37058;41.442;23.240;2022-08-23T12:19:52;99734.63;;;28.60;56.13
51031;BME280;37058;41.442;23.240;2022-08-23T12:22:29;99738.25;;;28.60;55.03
51031;BME280;37058;41.442;23.240;2022-08-23T12:25:07;99736.63;;;28.59;55.02
51031;BME280;37058;41.442;23.240;2022-08-23T12:28:16;99735.84;;;28.62;55.43
51031;BME280;37058;41.442;23.240;2022-08-23T12:30:49;99727.44;;;28.66;55.13
51031;BME280;37058;41.442;23.240;2022-08-23T12:36:49;99719.00;;;28.62;56.37
51031;BME280;37058;41.442;23.240;2022-08-23T12:42:06;99715.00;;;28.67;57.08
51031;BME280;37058;41.442;23.240;2022-08-23T12:44:34;99709.41;;;28.67;57.12
51031;BME280;37058;41.442;23.240;2022-08-23T12:47:30;99708.22;;;28.71;57.48
51031;BME280;37058;41.442;23.240;2022-08-23T12:52:30;99707.00;;;28.72;57.70
51031;BME280;37058;41.442;23.240;2022-08-23T12:54:57;99707.84;;;28.77;58.55
51031;BME280;37058;41.442;23.240;2022-08-23T12:57:39;99700.22;;;28.81;58.20
51031;BME280;37058;41.442;23.240;2022-08-23T13:00:21;99700.63;;;28.79;57.99
51031;BME280;37058;41.442;23.240;2022-08-23T13:03:03;99705.03;;;28.80;58.31
51031;BME280;37058;41.442;23.240;2022-08-23T13:05:46;99712.69;;;28.83;57.72
51031;BME280;37058;41.442;23.240;2022-08-23T13:08:33;99715.53;;;28.87;57.50
51031;BME280;37058;41.442;23.240;2022-08-23T13:11:05;99711.13;;;28.93;56.72
51031;BME280;37058;41.442;23.240;2022-08-23T13:13:32;99721.56;;;28.96;57.00
51031;BME280;37058;41.442;23.240;2022-08-23T13:16:02;99717.59;;;28.97;56.39
51031;BME280;37058;41.442;23.240;2022-08-23T13:18:42;99723.63;;;29.03;56.93
51031;BME280;37058;41.442;23.240;2022-08-23T13:21:30;99718.38;;;29.01;56.47
51031;BME280;37058;41.442;23.240;2022-08-23T13:24:31;99727.63;;;28.98;56.59
51031;BME280;37058;41.442;23.240;2022-08-23T13:27:23;99726.81;;;28.98;56.72
51031;BME280;37058;41.442;23.240;2022-08-23T13:29:57;99721.19;;;28.98;56.45
51031;BME280;37058;41.442;23.240;2022-08-23T13:32:41;99732.03;;;28.99;57.77
51031;BME280;37058;41.442;23.240;2022-08-23T13:35:43;99729.63;;;29.01;56.98
51031;BME280;37058;41.442;23.240;2022-08-23T13:38:29;99734.09;;;29.06;57.24
51031;BME280;37058;41.442;23.240;2022-08-23T13:41:05;99731.72;;;29.11;57.54
51031;BME280;37058;41.442;23.240;2022-08-23T13:46:24;99727.34;;;29.17;56.80
51031;BME280;37058;41.442;23.240;2022-08-23T13:49:10;99730.19;;;29.25;57.05
51031;BME280;37058;41.442;23.240;2022-08-23T13:52:01;99726.56;;;29.31;57.64
51031;BME280;37058;41.442;23.240;2022-08-23T13:54:29;99720.19;;;29.38;58.60
51031;BME280;37058;41.442;23.240;2022-08-23T13:57:06;99722.56;;;29.39;58.05
51031;BME280;37058;41.442;23.240;2022-08-23T13:59:45;99716.56;;;29.41;56.58
51031;BME280;37058;41.442;23.240;2022-08-23T14:02:14;99718.56;;;29.44;55.88
51031;BME280;37058;41.442;23.240;2022-08-23T14:04:43;99716.16;;;29.46;56.52
51031;BME280;37058;41.442;23.240;2022-08-23T14:07:10;99733.06;;;29.46;57.95
51031;BME280;37058;41.442;23.240;2022-08-23T14:09:37;99731.03;;;29.47;57.42
51031;BME280;37058;41.442;23.240;2022-08-23T14:12:10;99725.00;;;29.45;57.59
51031;BME280;37058;41.442;23.240;2022-08-23T14:14:37;99730.22;;;29.46;57.91
51031;BME280;37058;41.442;23.240;2022-08-23T14:17:04;99718.59;;;29.51;58.12
51031;BME280;37058;41.442;23.240;2022-08-23T14:19:30;99729.47;;;29.60;58.27
51031;BME280;37058;41.442;23.240;2022-08-23T14:21:58;99722.28;;;29.70;57.62
51031;BME280;37058;41.442;23.240;2022-08-23T14:24:24;99721.09;;;29.78;56.43
51031;BME280;37058;41.442;23.240;2022-08-23T14:26:51;99721.91;;;29.86;55.15
51031;BME280;37058;41.442;23.240;2022-08-23T14:29:21;99719.47;;;29.88;54.70
51031;BME280;37058;41.442;23.240;2022-08-23T14:31:47;99724.31;;;29.94;55.02
51031;BME280;37058;41.442;23.240;2022-08-23T14:34:13;99712.28;;;30.01;53.96
51031;BME280;37058;41.442;23.240;2022-08-23T14:36:40;99712.28;;;30.01;52.27
51031;BME280;37058;41.442;23.240;2022-08-23T14:39:06;99714.25;;;30.00;52.17
51031;BME280;37058;41.442;23.240;2022-08-23T14:41:32;99713.06;;;30.01;50.76
51031;BME280;37058;41.442;23.240;2022-08-23T14:43:58;99715.50;;;30.03;51.61
51031;BME280;37058;41.442;23.240;2022-08-23T14:46:25;99710.66;;;30.03;49.80
51031;BME280;37058;41.442;23.240;2022-08-23T14:48:51;99716.28;;;30.07;49.55
51031;BME280;37058;41.442;23.240;2022-08-23T14:51:33;99711.06;;;30.06;50.74
51031;BME280;37058;41.442;23.240;2022-08-23T14:54:04;99710.25;;;30.05;49.99
51031;BME280;37058;41.442;23.240;2022-08-23T14:56:32;99707.03;;;30.07;50.54
51031;BME280;37058;41.442;23.240;2022-08-23T14:58:58;99713.06;;;30.09;48.09